Time;durP1;ratioP1;P1;durP2;ratioP2;P2;SDS_P1;SDS_P2;PMS_P1;PMS_P2;Temp;Humidity;BMP_temperature;BMP_pressure;BME280_temperature;BME280_humidity;BME280_pressure;Samples;Min_cycle;Max_cycle;Signal;HPM_P1;HPM_P2
2021/09/28 00:01:08;;;;;;;11.25;6.17;;;;;;;9.14;77.65;102010.70;1708514;83;21392;-83
2021/09/28 00:03:35;;;;;;;10.03;5.53;;;;;;;9.14;77.66;102012.94;1709776;83;21246;-83
2021/09/28 00:06:02;;;;;;;7.72;5.00;;;;;;;9.14;77.65;102009.38;1710187;83;20956;-90
2021/09/28 00:08:28;;;;;;;9.40;5.78;;;;;;;9.11;77.62;102008.83;1708874;83;21750;-91
2021/09/28 00:10:55;;;;;;;11.65;5.20;;;;;;;9.11;77.67;102014.08;1708705;83;21015;-91
2021/09/28 00:13:23;;;;;;;11.93;5.42;;;;;;;9.10;77.70;102007.05;1711487;82;21528;-92
2021/09/28 00:15:49;;;;;;;6.83;4.95;;;;;;;9.10;77.73;102011.38;1708618;83;21230;-91
2021/09/28 00:18:16;;;;;;;7.65;5.35;;;;;;;9.09;77.71;102011.79;1711632;83;21526;-91
2021/09/28 00:20:43;;;;;;;8.50;5.30;;;;;;;9.07;77.72;102007.30;1708776;83;21747;-91
2021/09/28 00:23:13;;;;;;;10.82;5.20;;;;;;;9.07;77.78;102009.50;1709570;83;21027;-92
2021/09/28 00:25:43;;;;;;;7.50;4.60;;;;;;;9.08;77.84;102005.14;1710804;83;21031;-92
2021/09/28 00:28:10;;;;;;;7.75;5.12;;;;;;;9.10;77.92;102006.12;1708913;83;21039;-91
2021/09/28 00:30:37;;;;;;;9.78;4.70;;;;;;;9.09;77.87;102004.33;1709318;83;21043;-90
2021/09/28 00:33:03;;;;;;;10.88;4.85;;;;;;;9.09;77.91;102001.70;1711159;82;21919;-90
2021/09/28 00:35:30;;;;;;;8.45;4.65;;;;;;;9.08;77.88;102004.72;1710617;83;21235;-90
2021/09/28 00:37:57;;;;;;;7.58;4.17;;;;;;;9.07;77.92;102004.66;1709054;83;21028;-90
2021/09/28 00:40:23;;;;;;;8.23;4.60;;;;;;;9.05;77.91;102001.06;1710649;83;21035;-90
2021/09/28 00:42:50;;;;;;;8.53;4.70;;;;;;;9.04;77.90;102000.56;1708345;83;21082;-90
2021/09/28 00:45:17;;;;;;;8.05;4.85;;;;;;;9.02;77.93;102001.78;1708529;83;22578;-89
2021/09/28 00:47:43;;;;;;;6.42;4.58;;;;;;;9.03;78.00;102003.61;1711452;83;21031;-91
2021/09/28 00:50:10;;;;;;;13.25;4.87;;;;;;;9.03;78.02;101994.41;1710110;83;21111;-90
2021/09/28 00:52:37;;;;;;;6.20;4.05;;;;;;;9.03;77.94;101997.42;1705713;83;21008;-91
2021/09/28 00:55:05;;;;;;;5.92;4.33;;;;;;;9.02;77.92;101993.91;1705673;84;21106;-91
2021/09/28 00:57:32;;;;;;;6.45;4.37;;;;;;;9.01;77.96;101992.52;1706003;83;22570;-90
2021/09/28 00:59:59;;;;;;;6.22;4.15;;;;;;;9.00;77.99;101993.35;1705832;83;21083;-89
2021/09/28 01:02:25;;;;;;;9.00;4.10;;;;;;;8.98;78.00;101990.64;1705803;84;21254;-90
2021/09/28 01:04:52;;;;;;;7.37;4.78;;;;;;;8.98;78.00;101986.70;1705154;83;21070;-82
2021/09/28 01:07:18;;;;;;;6.58;4.75;;;;;;;8.98;78.03;101991.06;1705189;84;21027;-86
2021/09/28 01:09:46;;;;;;;9.20;4.85;;;;;;;8.97;78.07;101991.45;1705070;83;21737;-82
2021/09/28 01:12:13;;;;;;;8.63;4.70;;;;;;;8.95;78.05;101991.78;1705002;84;21065;-83
2021/09/28 01:14:42;;;;;;;5.70;4.33;;;;;;;8.94;78.08;101988.27;1705873;84;21062;-91
2021/09/28 01:17:16;;;;;;;9.83;6.35;;;;;;;8.92;78.05;101985.08;1705585;83;21136;-84
2021/09/28 01:19:42;;;;;;;16.80;10.68;;;;;;;8.91;78.13;101975.38;1705117;83;21102;-83
2021/09/28 01:22:10;;;;;;;21.57;19.32;;;;;;;8.89;78.13;101975.72;1705251;83;21805;-83
2021/09/28 01:24:37;;;;;;;19.02;16.57;;;;;;;8.89;78.19;101984.49;1705005;84;21122;-83
2021/09/28 01:27:04;;;;;;;24.45;21.35;;;;;;;8.88;78.20;101981.81;1705656;83;21900;-91
2021/09/28 01:29:31;;;;;;;28.07;25.08;;;;;;;8.86;78.19;101976.48;1705864;83;21008;-82
2021/09/28 01:31:57;;;;;;;37.05;33.25;;;;;;;8.85;78.18;101985.58;1705005;83;21099;-83
2021/09/28 01:34:24;;;;;;;32.30;28.95;;;;;;;8.83;78.19;101976.73;1705014;83;21732;-83
2021/09/28 01:36:51;;;;;;;36.70;32.98;;;;;;;8.83;78.26;101983.29;1704803;83;21070;-83
2021/09/28 01:39:19;;;;;;;26.77;21.52;;;;;;;8.81;78.27;101977.95;1704827;83;21110;-83
2021/09/28 01:41:46;;;;;;;14.55;11.10;;;;;;;8.79;78.28;101974.35;1704858;83;21158;-83
2021/09/28 01:44:17;;;;;;;14.03;11.35;;;;;;;8.78;78.31;101975.58;1704859;83;21130;-83
2021/09/28 01:46:45;;;;;;;9.68;7.78;;;;;;;8.76;78.31;101976.80;1706062;83;23623;-91
2021/09/28 01:49:15;;;;;;;12.10;6.08;;;;;;;8.75;78.38;101977.64;1706082;83;21140;-91
2021/09/28 01:51:41;;;;;;;8.63;5.83;;;;;;;8.73;78.38;101974.94;1711639;83;21042;-83
2021/09/28 01:54:08;;;;;;;8.95;5.47;;;;;;;8.70;78.34;101969.52;1717444;83;21007;-92
2021/09/28 01:56:35;;;;;;;9.30;5.80;;;;;;;8.69;78.45;101972.05;1715708;83;21012;-90
2021/09/28 01:59:03;;;;;;;10.68;6.17;;;;;;;8.68;78.45;101975.52;1716117;83;21830;-90
2021/09/28 02:01:30;;;;;;;9.13;4.92;;;;;;;8.67;78.47;101969.77;1715980;83;21505;-90
2021/09/28 02:03:57;;;;;;;12.45;5.60;;;;;;;8.65;78.49;101972.33;1716150;83;21588;-90
2021/09/28 02:06:23;;;;;;;7.97;5.25;;;;;;;8.64;78.51;101970.52;1715970;83;21567;-90
2021/09/28 02:08:50;;;;;;;7.28;5.58;;;;;;;8.62;78.53;101961.66;1715891;83;21031;-91
2021/09/28 02:11:17;;;;;;;8.45;5.55;;;;;;;8.64;78.61;101966.58;1715712;83;21749;-90
2021/09/28 02:13:44;;;;;;;10.63;4.67;;;;;;;8.63;78.63;101966.07;1715882;83;21564;-91
2021/09/28 02:16:10;;;;;;;10.48;5.58;;;;;;;8.63;78.60;101964.76;1716176;83;21654;-91
2021/09/28 02:18:37;;;;;;;8.88;4.78;;;;;;;8.64;78.71;101960.02;1715750;83;21114;-84
2021/09/28 02:21:04;;;;;;;9.68;5.20;;;;;;;8.63;78.66;101957.30;1715265;83;21066;-84
2021/09/28 02:23:31;;;;;;;5.87;4.60;;;;;;;8.63;78.67;101962.13;1715106;83;22714;-83
2021/09/28 02:25:57;;;;;;;6.42;4.83;;;;;;;8.60;78.59;101958.06;1715881;83;21807;-91
2021/09/28 02:28:24;;;;;;;7.00;4.53;;;;;;;8.59;78.63;101962.80;1716098;83;21023;-93
2021/09/28 02:30:51;;;;;;;10.05;4.55;;;;;;;8.57;78.66;101960.52;1715967;83;21204;-91
2021/09/28 02:33:18;;;;;;;6.42;4.58;;;;;;;8.56;78.77;101954.79;1715905;83;21609;-91
2021/09/28 02:35:45;;;;;;;9.35;4.67;;;;;;;8.56;78.75;101958.73;1715998;83;21781;-91
2021/09/28 02:38:11;;;;;;;8.43;5.15;;;;;;;8.54;78.74;101956.44;1715916;83;20996;-90
2021/09/28 02:40:38;;;;;;;6.87;4.78;;;;;;;8.55;78.83;101952.97;1716088;83;21028;-90
2021/09/28 02:43:05;;;;;;;11.68;4.62;;;;;;;8.54;78.80;101952.50;1715952;83;21048;-90
2021/09/28 02:45:32;;;;;;;11.18;4.50;;;;;;;8.52;78.79;101955.42;1716469;83;21066;-91
2021/09/28 02:47:58;;;;;;;7.08;4.20;;;;;;;8.52;78.90;101956.34;1716134;82;21722;-91
2021/09/28 02:50:25;;;;;;;9.40;5.00;;;;;;;8.51;78.84;101954.95;1716412;83;20983;-94
2021/09/28 02:52:51;;;;;;;10.03;4.90;;;;;;;8.49;78.85;101953.55;1715876;83;21015;-86
2021/09/28 02:55:18;;;;;;;7.78;5.17;;;;;;;8.50;78.99;101955.37;1718601;83;21072;-84
2021/09/28 02:57:45;;;;;;;8.03;5.17;;;;;;;8.51;79.03;101957.58;1718992;83;21074;-84
2021/09/28 03:00:13;;;;;;;11.22;4.53;;;;;;;8.50;79.04;101956.69;1713873;83;22393;-84
2021/09/28 03:02:39;;;;;;;7.60;5.55;;;;;;;8.50;79.10;101963.24;1719981;83;21105;-85
2021/09/28 03:05:07;;;;;;;7.55;4.72;;;;;;;8.52;79.12;101955.42;1721432;82;20991;-84
2021/09/28 03:07:33;;;;;;;8.45;4.75;;;;;;;8.53;79.12;101951.99;1721557;83;21101;-84
2021/09/28 03:10:00;;;;;;;7.47;4.70;;;;;;;8.51;79.11;101956.27;1721576;83;21576;-84
2021/09/28 03:12:26;;;;;;;14.23;5.30;;;;;;;8.51;79.14;101949.28;1716541;83;22577;-84
2021/09/28 03:14:53;;;;;;;8.78;5.35;;;;;;;8.52;79.18;101948.86;1715615;82;21024;-91
2021/09/28 03:17:20;;;;;;;7.75;4.92;;;;;;;8.52;79.22;101949.79;1722419;82;21789;-91
2021/09/28 03:19:46;;;;;;;8.55;5.15;;;;;;;8.52;79.23;101951.48;1715773;83;21098;-84
2021/09/28 03:22:13;;;;;;;8.35;5.45;;;;;;;8.52;79.25;101945.84;1717686;82;21091;-83
2021/09/28 03:24:40;;;;;;;7.45;5.30;;;;;;;8.54;79.27;101953.81;1719938;83;21753;-91
2021/09/28 03:27:06;;;;;;;5.00;4.50;;;;;;;8.53;79.29;101951.57;1718559;83;21548;-83
2021/09/28 03:29:33;;;;;;;8.00;5.08;;;;;;;8.55;79.33;101954.28;1718920;82;21018;-84
2021/09/28 03:31:59;;;;;;;7.40;4.95;;;;;;;8.58;79.36;101958.78;1721057;83;21030;-85
2021/09/28 03:34:26;;;;;;;9.10;4.55;;;;;;;8.60;79.44;101954.55;1716069;83;21042;-84
2021/09/28 03:36:53;;;;;;;5.87;4.50;;;;;;;8.64;79.44;101959.13;1721470;82;22543;-83
2021/09/28 03:39:20;;;;;;;6.60;5.17;;;;;;;8.69;79.50;101959.86;1719197;83;21043;-84
2021/09/28 03:41:48;;;;;;;6.03;4.45;;;;;;;8.77;79.56;101967.23;1716506;83;21488;-84
2021/09/28 03:44:15;;;;;;;7.50;4.80;;;;;;;8.84;79.53;101966.31;1721692;83;21337;-84
2021/09/28 03:46:41;;;;;;;8.40;5.53;;;;;;;8.90;79.53;101965.30;1721445;82;21097;-84
2021/09/28 03:49:08;;;;;;;9.98;5.45;;;;;;;8.99;79.53;101964.88;1719662;83;21782;-84
2021/09/28 03:51:35;;;;;;;10.65;5.47;;;;;;;9.07;79.50;101966.16;1710898;83;21114;-84
2021/09/28 03:54:02;;;;;;;7.20;5.60;;;;;;;9.14;79.45;101968.66;1702458;83;21109;-92
2021/09/28 03:56:29;;;;;;;7.97;4.90;;;;;;;9.20;79.36;101962.85;1701926;84;21062;-92
2021/09/28 03:58:55;;;;;;;9.30;5.80;;;;;;;9.22;79.22;101961.20;1701873;84;21035;-91
2021/09/28 04:01:22;;;;;;;6.37;4.92;;;;;;;9.25;79.18;101966.20;1701924;84;21668;-91
2021/09/28 04:03:49;;;;;;;7.28;4.67;;;;;;;9.30;79.19;101962.47;1701854;84;21568;-90
2021/09/28 04:06:15;;;;;;;9.68;4.25;;;;;;;9.34;79.19;101962.68;1701571;84;21125;-83
2021/09/28 04:08:42;;;;;;;5.42;4.12;;;;;;;9.41;79.18;101967.84;1701359;84;21059;-89
2021/09/28 04:11:08;;;;;;;5.58;4.40;;;;;;;9.47;79.18;101969.45;1701680;84;21050;-89
2021/09/28 04:13:35;;;;;;;4.45;3.67;;;;;;;9.53;79.12;101968.84;1701633;84;21788;-91
2021/09/28 04:16:05;;;;;;;5.87;4.45;;;;;;;9.59;79.10;101973.50;1701721;82;20995;-91
2021/09/28 04:18:30;;;;;;;5.72;4.37;;;;;;;9.61;78.98;101976.71;1701533;84;21105;-92
2021/09/28 04:20:59;;;;;;;6.20;4.47;;;;;;;9.65;78.91;101977.77;1701712;84;21070;-92
2021/09/28 04:23:27;;;;;;;5.67;4.58;;;;;;;9.70;78.96;101982.80;1701282;83;21060;-86
2021/09/28 04:25:54;;;;;;;6.37;4.80;;;;;;;9.75;78.95;101976.47;1701640;84;21749;-87
2021/09/28 04:28:20;;;;;;;6.55;4.65;;;;;;;9.78;78.81;101976.21;1701492;84;21066;-90
2021/09/28 04:30:47;;;;;;;7.20;5.22;;;;;;;9.82;78.74;101978.58;1701637;83;21067;-89
2021/09/28 04:33:14;;;;;;;7.62;5.55;;;;;;;9.83;78.60;101976.41;1702471;84;21115;-89
2021/09/28 04:35:41;;;;;;;8.40;4.75;;;;;;;9.83;78.47;101980.36;1701507;84;21086;-89
2021/09/28 04:38:11;;;;;;;6.42;5.30;;;;;;;9.81;78.43;101980.70;1701163;84;22401;-95
2021/09/28 04:40:38;;;;;;;6.72;5.33;;;;;;;9.82;78.43;101986.04;1701754;84;21027;-89
2021/09/28 04:43:05;;;;;;;11.35;5.85;;;;;;;9.84;78.49;101987.44;1701869;82;21065;-91
2021/09/28 04:45:32;;;;;;;8.20;6.40;;;;;;;9.89;78.49;101992.09;1701767;84;21074;-91
2021/09/28 04:47:58;;;;;;;8.93;6.42;;;;;;;9.89;78.32;101985.52;1701459;82;21126;-92
2021/09/28 04:50:25;;;;;;;7.17;6.00;;;;;;;9.91;78.28;101994.38;1701038;82;22461;-89
2021/09/28 04:52:52;;;;;;;9.15;6.15;;;;;;;9.92;78.19;101988.69;1706550;83;21129;-90
2021/09/28 04:55:38;;;;;;;9.08;6.47;;;;;;;9.91;78.08;101995.69;1712292;83;21065;-95
2021/09/28 04:58:02;;;;;;;8.88;6.97;;;;;;;9.90;78.04;101996.50;1710201;81;21547;-93
2021/09/28 05:00:29;;;;;;;6.90;5.92;;;;;;;9.87;78.00;101996.37;1711477;83;21077;-90
2021/09/28 05:02:55;;;;;;;8.78;6.15;;;;;;;9.89;78.07;101997.73;1711640;83;21730;-90
2021/09/28 05:05:22;;;;;;;9.18;6.17;;;;;;;9.95;78.04;101997.13;1711238;83;21058;-89
2021/09/28 05:07:49;;;;;;;12.13;6.40;;;;;;;10.02;78.15;101997.91;1711442;83;21066;-90
2021/09/28 05:10:15;;;;;;;10.50;6.65;;;;;;;10.12;78.17;101996.22;1711042;83;21170;-90
2021/09/28 05:12:42;;;;;;;7.35;6.25;;;;;;;10.20;78.09;101996.14;1722163;82;21108;-88
2021/09/28 05:15:10;;;;;;;8.78;5.45;;;;;;;10.31;78.00;101995.37;1713906;83;21717;-90
2021/09/28 05:17:36;;;;;;;6.30;4.92;;;;;;;10.38;77.86;101994.83;1711283;83;21022;-89
2021/09/28 05:20:04;;;;;;;11.35;5.58;;;;;;;10.45;77.73;101990.72;1711557;82;21097;-89
2021/09/28 05:22:31;;;;;;;6.55;4.85;;;;;;;10.52;77.68;101988.86;1711365;83;21623;-90
2021/09/28 05:24:58;;;;;;;7.83;4.95;;;;;;;10.56;77.37;101988.58;1711602;82;21062;-90
2021/09/28 05:27:24;;;;;;;7.78;4.60;;;;;;;10.63;77.40;101988.03;1711466;83;21730;-93
2021/09/28 05:29:51;;;;;;;9.48;4.78;;;;;;;10.69;77.21;101985.66;1711644;83;21481;-89
2021/09/28 05:32:17;;;;;;;6.17;4.83;;;;;;;10.69;76.97;101980.39;1711705;83;21085;-87
2021/09/28 05:34:44;;;;;;;7.58;4.92;;;;;;;10.70;76.92;101987.48;1711533;83;21086;-88
2021/09/28 05:37:11;;;;;;;12.70;5.05;;;;;;;10.70;76.91;101984.41;1711493;83;21078;-90
2021/09/28 05:39:37;;;;;;;7.60;4.50;;;;;;;10.73;76.87;101990.22;1711447;83;22551;-90
2021/09/28 05:42:05;;;;;;;7.72;4.60;;;;;;;10.78;76.94;101985.17;1711313;83;21439;-89
2021/09/28 05:44:31;;;;;;;6.30;4.42;;;;;;;10.83;76.83;101988.50;1711395;83;21090;-90
2021/09/28 05:46:59;;;;;;;10.48;4.83;;;;;;;10.88;76.80;101996.58;1711195;83;21219;-85
2021/09/28 05:49:26;;;;;;;7.83;4.58;;;;;;;10.90;76.63;102000.19;1711094;82;21734;-85
2021/09/28 05:51:54;;;;;;;14.40;4.83;;;;;;;10.92;76.45;102005.09;1711197;83;22561;-84
2021/09/28 05:54:21;;;;;;;5.62;4.50;;;;;;;10.94;76.48;102002.11;1708267;83;21155;-90
2021/09/28 05:56:49;;;;;;;10.28;4.85;;;;;;;10.97;76.35;102006.20;1707948;84;21086;-84
2021/09/28 05:59:16;;;;;;;9.63;4.90;;;;;;;10.98;76.26;102010.66;1688609;84;21089;-84
2021/09/28 06:01:43;;;;;;;8.88;4.70;;;;;;;11.03;76.34;102013.05;1707897;84;21078;-84
2021/09/28 06:04:10;;;;;;;8.33;5.15;;;;;;;11.04;76.17;102012.66;1685316;83;22346;-90
2021/09/28 06:06:36;;;;;;;5.37;4.65;;;;;;;11.04;75.98;102013.97;1710284;83;21065;-91
2021/09/28 06:09:04;;;;;;;7.78;4.85;;;;;;;11.00;75.89;102018.59;1707818;84;21629;-85
2021/09/28 06:11:31;;;;;;;9.98;5.53;;;;;;;10.98;75.97;102015.92;1707736;84;21075;-85
2021/09/28 06:13:57;;;;;;;6.78;4.33;;;;;;;11.00;75.96;102025.19;1707848;84;21114;-85
2021/09/28 06:16:24;;;;;;;7.30;4.33;;;;;;;11.02;76.00;102028.81;1707809;84;21729;-85
2021/09/28 06:18:51;;;;;;;7.15;4.65;;;;;;;11.06;75.95;102035.59;1707930;84;21069;-85
2021/09/28 06:21:17;;;;;;;5.40;4.72;;;;;;;11.09;76.03;102029.15;1708040;84;21173;-85
2021/09/28 06:23:44;;;;;;;6.80;4.70;;;;;;;11.19;76.05;102033.50;1708077;84;21056;-85
2021/09/28 06:26:11;;;;;;;6.03;4.60;;;;;;;11.23;76.01;102039.38;1708202;84;21046;-85
2021/09/28 06:28:37;;;;;;;6.47;4.47;;;;;;;11.29;76.01;102028.66;1708001;84;21889;-85
2021/09/28 06:31:04;;;;;;;11.63;6.53;;;;;;;11.35;75.91;102033.30;1707873;84;21035;-85
2021/09/28 06:33:31;;;;;;;9.78;4.83;;;;;;;11.41;75.83;102032.27;1708244;84;21094;-90
2021/09/28 06:35:58;;;;;;;8.35;4.12;;;;;;;11.44;75.77;102030.16;1708437;84;21086;-90
2021/09/28 06:38:24;;;;;;;7.58;4.80;;;;;;;11.52;75.87;102031.80;1708484;84;21615;-89
2021/09/28 06:40:51;;;;;;;6.60;4.72;;;;;;;11.63;75.88;102038.41;1708472;84;21786;-90
2021/09/28 06:43:19;;;;;;;7.03;4.42;;;;;;;11.73;75.84;102032.70;1708231;84;21504;-89
2021/09/28 06:45:45;;;;;;;7.67;5.62;;;;;;;11.80;75.61;102043.95;1708493;84;21034;-90
2021/09/28 06:48:12;;;;;;;11.53;5.10;;;;;;;11.86;75.59;102038.95;1708525;84;21102;-90
2021/09/28 06:50:39;;;;;;;6.25;5.17;;;;;;;11.95;75.55;102039.75;1708345;84;21090;-85
2021/09/28 06:53:05;;;;;;;8.65;5.08;;;;;;;12.04;75.41;102040.55;1707356;83;21725;-90
2021/09/28 06:55:35;;;;;;;7.12;5.00;;;;;;;12.10;75.25;102039.89;1705642;84;21062;-90
2021/09/28 06:58:01;;;;;;;6.87;4.90;;;;;;;12.15;75.10;102040.98;1705741;83;21039;-89
2021/09/28 07:00:28;;;;;;;9.15;4.78;;;;;;;12.18;75.00;102044.64;1705967;84;21170;-89
2021/09/28 07:02:54;;;;;;;9.08;5.75;;;;;;;12.22;74.97;102048.30;1705624;84;21090;-84
2021/09/28 07:05:21;;;;;;;7.58;5.60;;;;;;;12.22;74.84;102049.19;1705797;84;21733;-90
2021/09/28 07:07:48;;;;;;;6.12;5.10;;;;;;;12.19;74.71;102054.77;1705715;84;21026;-90
2021/09/28 07:10:14;;;;;;;10.63;6.50;;;;;;;12.13;74.64;102052.79;1705901;84;21073;-90
2021/09/28 07:12:41;;;;;;;8.03;5.60;;;;;;;12.16;74.88;102055.56;1705757;83;21058;-90
2021/09/28 07:15:08;;;;;;;6.97;5.15;;;;;;;12.22;74.89;102050.94;1706017;84;21573;-91
2021/09/28 07:17:35;;;;;;;8.75;5.25;;;;;;;12.28;74.90;102054.23;1705919;84;21806;-90
2021/09/28 07:20:02;;;;;;;6.97;4.92;;;;;;;12.36;74.78;102056.31;1705906;84;21038;-90
2021/09/28 07:22:31;;;;;;;11.68;5.35;;;;;;;12.44;74.79;102059.25;1706031;84;21078;-90
2021/09/28 07:24:58;;;;;;;10.05;4.92;;;;;;;12.53;74.73;102059.59;1706049;84;21101;-90
2021/09/28 07:27:24;;;;;;;10.15;5.12;;;;;;;12.62;74.56;102053.34;1706197;84;21065;-91
2021/09/28 07:29:51;;;;;;;7.70;5.20;;;;;;;12.66;74.34;102055.69;1706053;82;21742;-91
2021/09/28 07:32:20;;;;;;;7.83;4.78;;;;;;;12.72;74.31;102053.69;1706076;84;21123;-90
2021/09/28 07:34:46;;;;;;;8.75;5.20;;;;;;;12.81;74.32;102052.28;1705980;83;21054;-90
2021/09/28 07:37:13;;;;;;;7.90;5.00;;;;;;;12.93;74.26;102055.81;1706183;84;21086;-90
2021/09/28 07:39:40;;;;;;;7.67;5.45;;;;;;;12.98;74.04;102054.21;1706206;84;21081;-90
2021/09/28 07:42:06;;;;;;;9.45;5.28;;;;;;;13.08;73.97;102057.19;1705947;84;21725;-91
2021/09/28 07:44:33;;;;;;;8.75;5.80;;;;;;;13.15;73.82;102054.81;1705965;84;21082;-91
2021/09/28 07:47:00;;;;;;;6.00;5.37;;;;;;;13.23;73.72;102053.76;1706198;84;21034;-90
2021/09/28 07:49:27;;;;;;;7.97;5.05;;;;;;;13.33;73.63;102057.25;1706128;82;21547;-90
2021/09/28 07:51:53;;;;;;;10.63;5.85;;;;;;;13.45;73.58;102057.20;1705672;84;21077;-84
2021/09/28 07:54:20;;;;;;;6.28;4.90;;;;;;;13.56;73.45;102056.70;1710108;83;21730;-84
2021/09/28 07:56:47;;;;;;;5.65;4.70;;;;;;;13.62;73.09;102053.36;1710290;83;21572;-91
2021/09/28 07:59:14;;;;;;;10.68;5.03;;;;;;;13.66;72.84;102051.29;1703530;84;21512;-85
2021/09/28 08:01:40;;;;;;;9.45;5.05;;;;;;;13.72;72.88;102053.23;1703341;84;21026;-90
2021/09/28 08:04:07;;;;;;;17.30;5.20;;;;;;;13.83;72.72;102052.27;1703623;84;21307;-91
2021/09/28 08:06:34;;;;;;;11.50;5.47;;;;;;;13.89;72.47;102052.06;1703574;84;21754;-90
2021/09/28 08:09:00;;;;;;;8.08;5.10;;;;;;;13.95;72.31;102050.03;1703335;82;21145;-90
2021/09/28 08:11:27;;;;;;;8.93;4.58;;;;;;;14.03;72.31;102056.90;1703473;84;21031;-90
2021/09/28 08:13:54;;;;;;;10.82;5.87;;;;;;;14.07;71.91;102054.81;1703594;84;21603;-85
2021/09/28 08:16:21;;;;;;;9.38;5.30;;;;;;;14.05;71.89;102046.81;1703276;84;21082;-84
2021/09/28 08:18:48;;;;;;;8.15;4.72;;;;;;;14.20;71.84;102054.34;1702950;84;21721;-85
2021/09/28 08:21:14;;;;;;;7.53;4.40;;;;;;;14.27;71.69;102056.77;1703065;84;21485;-85
2021/09/28 08:23:41;;;;;;;7.15;4.28;;;;;;;14.31;71.42;102057.33;1703037;84;21050;-85
2021/09/28 08:29:09;;;;;;;6.15;4.30;;;;;;;14.32;71.28;102057.37;1703029;84;21085;-84
2021/09/28 08:31:47;;;;;;;8.68;4.30;;;;;;;14.44;71.23;102061.25;1703182;84;21752;-85
2021/09/28 08:34:14;;;;;;;8.08;4.28;;;;;;;14.51;71.04;102061.48;1702970;84;21034;-85
2021/09/28 08:36:40;;;;;;;8.50;4.20;;;;;;;14.65;71.06;102053.95;1703089;84;21133;-85
2021/09/28 08:39:12;;;;;;;7.70;4.30;;;;;;;14.79;71.09;102061.00;1703209;84;21156;-84
2021/09/28 08:41:44;;;;;;;4.40;3.95;;;;;;;14.94;70.75;102065.81;1703209;84;21094;-85
2021/09/28 08:44:12;;;;;;;5.95;4.22;;;;;;;15.04;70.64;102062.58;1702852;84;21754;-85
2021/09/28 08:46:39;;;;;;;7.95;4.33;;;;;;;15.13;70.19;102060.62;1702654;84;21066;-85
2021/09/28 08:49:05;;;;;;;5.62;4.30;;;;;;;15.17;70.07;102059.84;1702911;84;21051;-84
2021/09/28 08:51:32;;;;;;;11.03;4.58;;;;;;;15.22;69.90;102063.92;1702764;84;21173;-85
2021/09/28 08:53:59;;;;;;;6.47;4.05;;;;;;;15.28;69.82;102062.34;1702649;83;21070;-85
2021/09/28 08:56:27;;;;;;;5.08;3.92;;;;;;;15.38;69.84;102062.59;1703075;84;21774;-91
2021/09/28 08:59:05;;;;;;;6.22;3.70;;;;;;;15.46;69.72;102055.28;1703055;84;21082;-92
2021/09/28 09:01:34;;;;;;;6.55;4.10;;;;;;;15.59;69.59;102054.28;1702510;84;21069;-92
2021/09/28 09:04:18;;;;;;;4.87;3.77;;;;;;;15.62;69.08;102057.91;1703381;83;21077;-91
2021/09/28 09:06:45;;;;;;;5.17;3.95;;;;;;;15.66;68.98;102057.56;1703321;83;21166;-91
2021/09/28 09:09:16;;;;;;;7.30;3.95;;;;;;;15.72;68.97;102061.25;1703186;84;21822;-92
2021/09/28 09:11:45;;;;;;;4.80;3.65;;;;;;;15.80;68.84;102056.59;1703018;84;21046;-92
2021/09/28 09:14:23;;;;;;;5.45;3.40;;;;;;;15.91;68.67;102063.06;1703211;84;21035;-91
2021/09/28 09:16:52;;;;;;;7.55;3.42;;;;;;;16.00;68.70;102051.34;1703169;84;21089;-92
2021/09/28 09:19:29;;;;;;;4.67;3.50;;;;;;;16.10;68.37;102052.44;1703256;84;21559;-85
2021/09/28 09:21:59;;;;;;;11.25;3.52;;;;;;;16.18;68.38;102053.53;1702934;84;21762;-86
2021/09/28 09:24:49;;;;;;;5.28;4.17;;;;;;;16.21;67.79;102051.37;1702349;84;21546;-85
2021/09/28 09:27:29;;;;;;;8.53;3.60;;;;;;;16.19;67.70;102053.98;1703162;84;21113;-85
2021/09/28 09:30:15;;;;;;;6.30;3.47;;;;;;;16.28;67.73;102051.97;1702875;84;21639;-86
2021/09/28 09:32:55;;;;;;;7.05;3.55;;;;;;;16.32;67.63;102048.52;1703217;82;21027;-92
2021/09/28 09:35:34;;;;;;;5.95;3.08;;;;;;;16.41;67.46;102054.04;1703755;84;21816;-91
2021/09/28 09:38:07;;;;;;;7.08;3.37;;;;;;;16.47;67.30;102042.64;1703464;84;21014;-92
2021/09/28 09:40:35;;;;;;;6.33;3.35;;;;;;;16.55;67.15;102049.45;1703700;83;21615;-92
2021/09/28 09:43:02;;;;;;;7.53;3.08;;;;;;;16.58;67.04;102046.87;1703654;84;21105;-91
2021/09/28 09:45:29;;;;;;;4.62;3.15;;;;;;;16.67;66.99;102049.72;1703284;84;21671;-92
2021/09/28 09:47:56;;;;;;;8.03;3.80;;;;;;;16.72;66.59;102054.67;1703430;84;21186;-91
2021/09/28 09:50:23;;;;;;;4.00;3.20;;;;;;;16.74;66.53;102058.25;1703322;84;21066;-92
2021/09/28 09:53:05;;;;;;;6.40;2.70;;;;;;;16.79;66.34;102059.25;1703513;84;21062;-91
2021/09/28 09:55:33;;;;;;;4.10;3.00;;;;;;;16.84;66.13;102057.63;1721469;83;21088;-91
2021/09/28 09:58:00;;;;;;;3.05;2.40;;;;;;;16.83;65.99;102050.50;1724049;83;21073;-88
2021/09/28 10:00:28;;;;;;;5.45;3.30;;;;;;;16.95;65.88;102057.85;1723740;83;21871;-91
2021/09/28 10:02:55;;;;;;;4.30;2.60;;;;;;;16.98;65.51;102053.02;1718401;83;21043;-91
2021/09/28 10:05:25;;;;;;;4.53;3.30;;;;;;;17.04;65.66;102059.77;1711312;83;21011;-91
2021/09/28 10:07:52;;;;;;;6.15;2.95;;;;;;;17.14;65.49;102055.11;1711387;83;21043;-91
2021/09/28 10:10:19;;;;;;;4.72;2.98;;;;;;;17.20;65.11;102059.20;1711428;83;21121;-91
2021/09/28 10:12:46;;;;;;;3.62;3.05;;;;;;;17.19;64.92;102057.84;1711386;83;21805;-91
2021/09/28 10:15:14;;;;;;;9.53;3.12;;;;;;;17.21;64.82;102054.77;1711325;83;21015;-92
2021/09/28 10:17:43;;;;;;;3.98;2.70;;;;;;;17.28;64.87;102054.91;1711381;83;21512;-92
2021/09/28 10:20:28;;;;;;;6.20;3.70;;;;;;;17.37;64.75;102054.63;1711299;83;21087;-91
2021/09/28 10:22:57;;;;;;;6.22;5.03;;;;;;;17.45;64.77;102049.88;1711317;83;21113;-92
2021/09/28 10:25:31;;;;;;;4.62;3.70;;;;;;;17.57;64.59;102051.88;1711188;82;21835;-91
2021/09/28 10:28:09;;;;;;;7.15;4.50;;;;;;;17.60;64.26;102059.90;1710894;83;21555;-91
2021/09/28 10:30:39;;;;;;;5.97;5.05;;;;;;;17.62;64.08;102055.94;1711390;82;21165;-92
2021/09/28 10:33:26;;;;;;;7.40;3.50;;;;;;;17.66;64.01;102053.78;1711312;83;21058;-92
2021/09/28 10:35:58;;;;;;;4.70;3.40;;;;;;;17.71;63.93;102052.55;1711259;83;21089;-91
2021/09/28 10:38:58;;;;;;;4.12;2.80;;;;;;;17.72;63.65;102055.23;1711681;83;21745;-91
2021/09/28 10:41:41;;;;;;;7.12;2.75;;;;;;;17.69;63.50;102045.41;1711298;83;21604;-92
2021/09/28 10:44:37;;;;;;;4.03;2.70;;;;;;;17.72;63.09;102051.66;1710940;83;21053;-91
2021/09/28 10:46:57;;;;;;;2.80;2.27;;;;;;;17.71;62.80;102056.09;1709245;83;21038;-85
2021/09/28 10:49:27;;;;;;;6.45;2.20;;;;;;;17.75;62.79;102050.38;1710974;83;21092;-85
2021/09/28 10:52:22;;;;;;;8.40;2.47;;;;;;;17.82;62.84;102046.95;1710899;83;21689;-86
2021/09/28 10:55:13;;;;;;;5.53;2.30;;;;;;;17.85;62.64;102053.70;1713280;83;21092;-85
2021/09/28 10:58:04;;;;;;;3.72;2.27;;;;;;;17.90;62.44;102055.98;1718567;83;21105;-92
2021/09/28 11:00:48;;;;;;;6.05;2.58;;;;;;;17.94;62.23;102052.48;1718657;83;21045;-91
2021/09/28 11:03:17;;;;;;;11.15;2.25;;;;;;;18.06;62.18;102044.70;1718605;83;21061;-91
2021/09/28 11:05:59;;;;;;;5.20;2.20;;;;;;;18.19;61.99;102046.22;1718436;83;22434;-91
2021/09/28 11:08:26;;;;;;;2.72;2.12;;;;;;;18.31;61.62;102046.81;1692702;83;21036;-91
2021/09/28 11:10:59;;;;;;;3.58;2.33;;;;;;;18.41;61.47;102040.31;1718475;83;21046;-91
2021/09/28 11:13:35;;;;;;;3.22;2.30;;;;;;;18.57;61.33;102040.05;1718672;83;21175;-87
2021/09/28 11:16:04;;;;;;;3.67;2.50;;;;;;;18.74;61.11;102038.04;1717532;83;21093;-91
2021/09/28 11:18:38;;;;;;;3.22;2.20;;;;;;;18.92;60.81;102042.70;1718722;83;22419;-91
2021/09/28 11:21:14;;;;;;;3.72;2.20;;;;;;;19.10;60.69;102047.36;1717501;83;21505;-90
2021/09/28 11:23:41;;;;;;;4.12;2.10;;;;;;;19.29;60.28;102042.64;1718315;83;21085;-91
2021/09/28 11:26:09;;;;;;;6.83;2.20;;;;;;;19.48;60.00;102037.48;1718572;83;21134;-91
2021/09/28 11:28:35;;;;;;;3.67;2.72;;;;;;;19.65;59.62;102038.95;1718569;83;21054;-92
2021/09/28 11:31:04;;;;;;;2.67;1.92;;;;;;;19.70;59.17;102044.79;1690017;83;21911;-91
2021/09/28 11:33:39;;;;;;;3.67;2.22;;;;;;;19.73;59.00;102038.18;1718468;82;21097;-91
2021/09/28 11:36:11;;;;;;;3.85;2.20;;;;;;;19.85;58.75;102038.70;1718388;83;21129;-91